Time;durP1;ratioP1;P1;durP2;ratioP2;P2;SDS_P1;SDS_P2;PMS_P1;PMS_P2;Temp;Humidity;BMP_temperature;BMP_pressure;BME280_temperature;BME280_humidity;BME280_pressure;Samples;Min_cycle;Max_cycle;Signal;HPM_P1;HPM_P2
2023/09/26 00:01:11;;;;;;;9.57;5.82;;;;;;;;;;5012212;28;20515;-75
2023/09/26 00:03:37;;;;;;;9.60;5.68;;;;;;;;;;5022009;28;20073;-73
2023/09/26 00:06:03;;;;;;;10.73;6.00;;;;;;;;;;5014077;28;20017;-72
2023/09/26 00:08:29;;;;;;;11.90;5.68;;;;;;;;;;5014104;28;20021;-73
2023/09/26 00:10:55;;;;;;;14.85;6.13;;;;;;;;;;5014175;28;20092;-73
2023/09/26 00:13:21;;;;;;;8.88;5.68;;;;;;;;;;5014160;28;20026;-74
2023/09/26 00:15:47;;;;;;;10.40;5.72;;;;;;;;;;5015361;28;20109;-75
2023/09/26 00:18:13;;;;;;;10.02;5.72;;;;;;;;;;5015243;28;20385;-75
2023/09/26 00:20:39;;;;;;;13.55;5.80;;;;;;;;;;5014752;28;20030;-75
2023/09/26 00:23:06;;;;;;;15.77;6.82;;;;;;;;;;5015069;28;20563;-74
2023/09/26 00:25:32;;;;;;;12.57;6.32;;;;;;;;;;5014178;28;20054;-74
2023/09/26 00:27:58;;;;;;;10.45;6.13;;;;;;;;;;5013752;28;20081;-73
2023/09/26 00:30:26;;;;;;;11.52;6.10;;;;;;;;;;5015421;28;20030;-74
2023/09/26 00:32:52;;;;;;;11.52;6.10;;;;;;;;;;5014749;28;20096;-74
2023/09/26 00:35:19;;;;;;;10.98;6.60;;;;;;;;;;5013353;28;20396;-73
2023/09/26 00:37:48;;;;;;;10.32;6.05;;;;;;;;;;5013568;28;20030;-74
2023/09/26 00:40:15;;;;;;;11.98;6.05;;;;;;;;;;5013510;28;20428;-74
2023/09/26 00:42:44;;;;;;;11.25;6.30;;;;;;;;;;5013359;28;20049;-74
2023/09/26 00:45:11;;;;;;;10.68;6.45;;;;;;;;;;5013982;28;20018;-76
2023/09/26 00:47:38;;;;;;;14.45;6.95;;;;;;;;;;5014319;28;20014;-76
2023/09/26 00:50:11;;;;;;;11.48;6.80;;;;;;;;;;5014076;28;20030;-74
2023/09/26 00:52:39;;;;;;;17.65;6.88;;;;;;;;;;5014147;28;20108;-76
2023/09/26 00:55:05;;;;;;;9.98;7.07;;;;;;;;;;5013275;28;20022;-75
2023/09/26 00:57:35;;;;;;;11.52;6.78;;;;;;;;;;5014543;28;20099;-75
2023/09/26 01:00:02;;;;;;;11.50;6.95;;;;;;;;;;5014246;28;20080;-75
2023/09/26 01:02:28;;;;;;;16.50;7.05;;;;;;;;;;5012945;28;20029;-75
2023/09/26 01:04:54;;;;;;;13.15;6.95;;;;;;;;;;5012901;28;20025;-74
2023/09/26 01:07:21;;;;;;;15.55;7.35;;;;;;;;;;5013105;28;20048;-75
2023/09/26 01:09:47;;;;;;;9.88;6.70;;;;;;;;;;5013242;28;20092;-74
2023/09/26 01:12:14;;;;;;;13.20;7.03;;;;;;;;;;5012965;28;20034;-74
2023/09/26 01:14:40;;;;;;;11.13;6.30;;;;;;;;;;5012801;28;20441;-75
2023/09/26 01:17:13;;;;;;;11.95;7.15;;;;;;;;;;5109572;27;20381;-73
2023/09/26 01:19:39;;;;;;;13.38;6.60;;;;;;;;;;5109548;28;20569;-74
2023/09/26 01:22:05;;;;;;;12.77;6.70;;;;;;;;;;5110135;28;20036;-74
2023/09/26 01:24:31;;;;;;;10.20;6.70;;;;;;;;;;5111212;28;20020;-74
2023/09/26 01:26:57;;;;;;;11.10;5.97;;;;;;;;;;5111300;28;20471;-75
2023/09/26 01:29:22;;;;;;;10.35;5.85;;;;;;;;;;5110777;28;20095;-75
2023/09/26 01:31:49;;;;;;;13.45;6.97;;;;;;;;;;5110084;28;20438;-75
2023/09/26 01:34:15;;;;;;;10.93;6.45;;;;;;;;;;5110351;28;20020;-74
2023/09/26 01:36:40;;;;;;;13.95;6.95;;;;;;;;;;5109842;28;20028;-75
2023/09/26 01:39:07;;;;;;;15.88;6.70;;;;;;;;;;5110048;28;20253;-75
2023/09/26 01:41:32;;;;;;;7.40;5.70;;;;;;;;;;5109278;28;20043;-73
2023/09/26 01:43:58;;;;;;;10.70;6.40;;;;;;;;;;5108830;28;20549;-73
2023/09/26 01:46:25;;;;;;;9.32;6.10;;;;;;;;;;5107756;28;20088;-73
2023/09/26 01:48:51;;;;;;;9.75;6.05;;;;;;;;;;5106845;28;20102;-73
2023/09/26 01:51:17;;;;;;;10.65;6.90;;;;;;;;;;5106132;28;20435;-73
2023/09/26 01:53:43;;;;;;;10.45;6.07;;;;;;;;;;5088333;28;20025;-74
2023/09/26 01:56:09;;;;;;;16.48;5.82;;;;;;;;;;5088140;28;20502;-74
2023/09/26 01:58:35;;;;;;;9.38;6.18;;;;;;;;;;5088978;28;20060;-74
2023/09/26 02:01:01;;;;;;;12.77;6.70;;;;;;;;;;5092028;28;20056;-73
2023/09/26 02:03:27;;;;;;;10.10;6.93;;;;;;;;;;5092517;28;20035;-73
2023/09/26 02:05:56;;;;;;;12.48;6.80;;;;;;;;;;5091355;28;20024;-74
2023/09/26 02:08:22;;;;;;;8.95;6.60;;;;;;;;;;5100714;28;20024;-73
2023/09/26 02:10:48;;;;;;;11.13;6.95;;;;;;;;;;5110585;28;20038;-74
2023/09/26 02:13:14;;;;;;;12.65;7.20;;;;;;;;;;5112396;28;20094;-74
2023/09/26 02:15:40;;;;;;;13.13;7.43;;;;;;;;;;5112072;28;20032;-73
2023/09/26 02:18:06;;;;;;;9.93;7.00;;;;;;;;;;5097732;28;20088;-73
2023/09/26 02:20:32;;;;;;;11.85;7.40;;;;;;;;;;5094835;28;20032;-73
2023/09/26 02:22:59;;;;;;;13.38;7.43;;;;;;;;;;5106249;28;20020;-73
2023/09/26 02:25:25;;;;;;;10.55;7.15;;;;;;;;;;5116270;28;20567;-73
2023/09/26 02:27:51;;;;;;;17.42;7.68;;;;;;;;;;5092229;28;20054;-74
2023/09/26 02:30:21;;;;;;;12.77;7.25;;;;;;;;;;5081689;28;20028;-73
2023/09/26 02:32:47;;;;;;;12.30;7.93;;;;;;;;;;5084691;28;20028;-73
2023/09/26 02:35:14;;;;;;;11.75;7.50;;;;;;;;;;5080566;28;20502;-71
2023/09/26 02:37:40;;;;;;;10.00;7.60;;;;;;;;;;5074247;28;20032;-72
2023/09/26 02:40:09;;;;;;;11.43;7.35;;;;;;;;;;5074265;28;20059;-73
2023/09/26 02:42:35;;;;;;;12.95;7.53;;;;;;;;;;5084823;28;20391;-73
2023/09/26 02:45:02;;;;;;;14.20;7.72;;;;;;;;;;5093722;28;20420;-72
2023/09/26 02:47:28;;;;;;;15.35;7.93;;;;;;;;;;5093841;28;20103;-72
2023/09/26 02:49:54;;;;;;;14.13;7.97;;;;;;;;;;5093220;28;20027;-73
2023/09/26 02:52:20;;;;;;;16.88;7.60;;;;;;;;;;5093857;28;20020;-73
2023/09/26 02:54:46;;;;;;;12.27;7.82;;;;;;;;;;5094356;28;20555;-73
2023/09/26 02:57:13;;;;;;;10.20;7.30;;;;;;;;;;5093935;28;20533;-73
2023/09/26 02:59:39;;;;;;;14.60;8.35;;;;;;;;;;5094340;28;20459;-74
2023/09/26 03:02:06;;;;;;;14.13;7.85;;;;;;;;;;5094359;28;20214;-73
2023/09/26 03:04:32;;;;;;;11.80;8.50;;;;;;;;;;5093929;28;20043;-74
2023/09/26 03:06:58;;;;;;;15.73;8.20;;;;;;;;;;5093835;28;20418;-74
2023/09/26 03:09:24;;;;;;;15.60;8.52;;;;;;;;;;5095354;28;20028;-78
2023/09/26 03:11:50;;;;;;;12.95;8.38;;;;;;;;;;5097185;28;20032;-77
2023/09/26 03:14:16;;;;;;;11.77;7.93;;;;;;;;;;5094321;28;20112;-75
2023/09/26 03:16:42;;;;;;;10.50;7.70;;;;;;;;;;5093735;28;20024;-73
2023/09/26 03:19:08;;;;;;;10.60;8.10;;;;;;;;;;5093342;28;20024;-74
2023/09/26 03:21:34;;;;;;;14.02;7.60;;;;;;;;;;5093182;28;20503;-72
2023/09/26 03:24:00;;;;;;;11.95;7.82;;;;;;;;;;5093564;28;20452;-73
2023/09/26 03:26:26;;;;;;;10.20;7.70;;;;;;;;;;5093125;28;20030;-73
2023/09/26 03:28:52;;;;;;;12.98;7.60;;;;;;;;;;5092707;28;20395;-74
2023/09/26 03:31:18;;;;;;;12.57;8.38;;;;;;;;;;5092133;28;20028;-73
2023/09/26 03:33:44;;;;;;;13.07;8.23;;;;;;;;;;5091957;28;20032;-74
2023/09/26 03:36:10;;;;;;;13.90;7.82;;;;;;;;;;5091900;28;20063;-73
2023/09/26 03:38:36;;;;;;;14.65;8.25;;;;;;;;;;5090738;28;20464;-73
2023/09/26 03:41:06;;;;;;;12.35;8.07;;;;;;;;;;5091684;28;20020;-74
2023/09/26 03:43:32;;;;;;;13.90;8.35;;;;;;;;;;5091693;28;20020;-76
2023/09/26 03:46:02;;;;;;;16.05;7.57;;;;;;;;;;5092128;28;20030;-78
2023/09/26 03:48:28;;;;;;;14.00;7.97;;;;;;;;;;5094455;28;20083;-78
2023/09/26 03:50:55;;;;;;;12.00;7.63;;;;;;;;;;5095578;28;20028;-76
2023/09/26 03:53:21;;;;;;;13.77;7.70;;;;;;;;;;5092888;28;20024;-77
2023/09/26 03:55:53;;;;;;;12.45;7.68;;;;;;;;;;5092292;28;20432;-77
2023/09/26 03:58:19;;;;;;;13.20;7.82;;;;;;;;;;5092841;28;20459;-78
2023/09/26 04:00:45;;;;;;;14.48;8.30;;;;;;;;;;5092502;28;20035;-76
2023/09/26 04:03:11;;;;;;;23.77;8.13;;;;;;;;;;5093719;28;20687;-75
2023/09/26 04:05:38;;;;;;;14.40;8.07;;;;;;;;;;5093620;28;20082;-73
2023/09/26 04:08:04;;;;;;;14.85;8.50;;;;;;;;;;5092500;28;20394;-74
2023/09/26 04:10:30;;;;;;;13.43;7.72;;;;;;;;;;5092706;28;20024;-74
2023/09/26 04:12:56;;;;;;;17.15;8.48;;;;;;;;;;5091414;28;20031;-74
2023/09/26 04:15:22;;;;;;;13.63;8.20;;;;;;;;;;5093822;28;20091;-75
2023/09/26 04:17:49;;;;;;;12.05;8.48;;;;;;;;;;5099661;28;20020;-75
2023/09/26 04:20:19;;;;;;;14.77;8.32;;;;;;;;;;5096717;28;20110;-74
2023/09/26 04:22:45;;;;;;;14.07;8.35;;;;;;;;;;5093459;28;20118;-74
2023/09/26 04:25:12;;;;;;;12.43;8.63;;;;;;;;;;5095142;28;20020;-75
2023/09/26 04:27:38;;;;;;;17.17;9.30;;;;;;;;;;5094111;28;20109;-75
2023/09/26 04:30:04;;;;;;;18.83;8.70;;;;;;;;;;5093993;28;20035;-76
2023/09/26 04:32:30;;;;;;;15.70;9.00;;;;;;;;;;5087640;28;20042;-76
2023/09/26 04:34:56;;;;;;;18.48;8.32;;;;;;;;;;5092847;28;20024;-77
2023/09/26 04:37:22;;;;;;;11.82;8.30;;;;;;;;;;5088889;28;20178;-76
2023/09/26 04:39:48;;;;;;;15.50;9.13;;;;;;;;;;5087136;28;20032;-78
2023/09/26 04:42:14;;;;;;;20.42;9.90;;;;;;;;;;5093190;28;20091;-75
2023/09/26 04:44:40;;;;;;;17.80;9.18;;;;;;;;;;5092041;28;20036;-75
2023/09/26 04:47:07;;;;;;;14.75;9.07;;;;;;;;;;5092993;28;20028;-79
2023/09/26 04:49:34;;;;;;;14.77;9.23;;;;;;;;;;5090678;28;20034;-76
2023/09/26 04:52:00;;;;;;;17.08;9.27;;;;;;;;;;5092648;28;20446;-77
2023/09/26 04:54:26;;;;;;;13.23;9.10;;;;;;;;;;5092375;28;20028;-77
2023/09/26 04:56:52;;;;;;;15.05;9.70;;;;;;;;;;5093071;28;20132;-76
2023/09/26 04:59:18;;;;;;;16.38;9.70;;;;;;;;;;5084738;28;20097;-74
2023/09/26 05:01:45;;;;;;;17.58;9.27;;;;;;;;;;5092966;28;20024;-76
2023/09/26 05:04:11;;;;;;;15.55;9.30;;;;;;;;;;5091332;28;20020;-74
2023/09/26 05:06:37;;;;;;;16.52;9.32;;;;;;;;;;5092379;28;20020;-74
2023/09/26 05:09:07;;;;;;;16.08;9.80;;;;;;;;;;5092518;28;20078;-75
2023/09/26 05:11:33;;;;;;;15.50;9.68;;;;;;;;;;5091721;28;20050;-76
2023/09/26 05:14:00;;;;;;;17.90;10.30;;;;;;;;;;5091783;28;20031;-74
2023/09/26 05:16:26;;;;;;;14.25;9.85;;;;;;;;;;5091103;28;20039;-74
2023/09/26 05:18:52;;;;;;;14.45;9.38;;;;;;;;;;5091503;28;20099;-73
2023/09/26 05:21:18;;;;;;;14.85;9.77;;;;;;;;;;5091408;28;20117;-78
2023/09/26 05:23:44;;;;;;;15.75;9.23;;;;;;;;;;5091486;28;20517;-74
2023/09/26 05:26:11;;;;;;;15.88;9.48;;;;;;;;;;5090548;28;20052;-76
2023/09/26 05:28:37;;;;;;;14.52;9.05;;;;;;;;;;5088320;28;20067;-75
2023/09/26 05:31:03;;;;;;;16.27;9.63;;;;;;;;;;5091234;28;20028;-74
2023/09/26 05:33:29;;;;;;;13.93;9.60;;;;;;;;;;5092421;28;20054;-76
2023/09/26 05:35:55;;;;;;;15.80;9.80;;;;;;;;;;5088080;28;20487;-75
2023/09/26 05:38:22;;;;;;;16.50;9.57;;;;;;;;;;5091835;28;20025;-78
2023/09/26 05:40:48;;;;;;;14.38;9.27;;;;;;;;;;5091917;28;20020;-76
2023/09/26 05:43:14;;;;;;;14.77;8.93;;;;;;;;;;5091423;28;20024;-76
2023/09/26 05:45:40;;;;;;;25.80;9.80;;;;;;;;;;5089919;28;20080;-75
2023/09/26 05:48:06;;;;;;;18.17;10.15;;;;;;;;;;5103291;28;20035;-75
2023/09/26 05:50:32;;;;;;;14.90;9.50;;;;;;;;;;5114219;28;20032;-78
2023/09/26 05:52:59;;;;;;;18.92;10.00;;;;;;;;;;5109355;28;20107;-76
2023/09/26 05:55:25;;;;;;;16.50;9.20;;;;;;;;;;5114325;28;20063;-73
2023/09/26 05:57:51;;;;;;;16.67;9.27;;;;;;;;;;5112067;28;20016;-75
2023/09/26 06:00:18;;;;;;;19.05;9.35;;;;;;;;;;5095617;28;20103;-76
2023/09/26 06:02:45;;;;;;;24.02;9.25;;;;;;;;;;5091572;28;20017;-75
2023/09/26 06:05:14;;;;;;;16.30;9.73;;;;;;;;;;5095341;28;20016;-76
2023/09/26 06:07:41;;;;;;;16.90;9.70;;;;;;;;;;5096127;28;20437;-76
2023/09/26 06:10:11;;;;;;;18.48;9.60;;;;;;;;;;5091756;28;20024;-75
2023/09/26 06:12:41;;;;;;;17.15;10.13;;;;;;;;;;5095444;28;20051;-77
2023/09/26 06:15:07;;;;;;;18.48;9.50;;;;;;;;;;5081862;28;20035;-75
2023/09/26 06:17:33;;;;;;;18.15;9.98;;;;;;;;;;5075085;28;20094;-77
2023/09/26 06:20:00;;;;;;;16.85;9.05;;;;;;;;;;5075898;28;20024;-77
2023/09/26 06:22:25;;;;;;;13.95;9.05;;;;;;;;;;5075454;28;20116;-74
2023/09/26 06:24:51;;;;;;;18.25;9.45;;;;;;;;;;5074148;28;20046;-75
2023/09/26 06:27:17;;;;;;;16.63;10.05;;;;;;;;;;5074381;28;20544;-75
2023/09/26 06:29:43;;;;;;;26.35;13.43;;;;;;;;;;5074277;28;20055;-73
2023/09/26 06:32:10;;;;;;;18.73;12.00;;;;;;;;;;5074529;28;20021;-73
2023/09/26 06:34:39;;;;;;;26.05;12.38;;;;;;;;;;5088008;28;20028;-75
2023/09/26 06:37:05;;;;;;;26.95;13.15;;;;;;;;;;5095315;28;20031;-75
2023/09/26 06:39:31;;;;;;;26.42;12.23;;;;;;;;;;5094979;28;20383;-76
2023/09/26 06:41:57;;;;;;;23.70;12.38;;;;;;;;;;5095124;28;20417;-75
2023/09/26 06:44:23;;;;;;;39.38;12.10;;;;;;;;;;5095159;28;20031;-78
2023/09/26 06:46:49;;;;;;;34.40;13.13;;;;;;;;;;5096336;28;20028;-77
2023/09/26 06:49:15;;;;;;;35.17;15.88;;;;;;;;;;5096732;28;20039;-77
2023/09/26 06:51:41;;;;;;;38.97;17.95;;;;;;;;;;5097222;28;20024;-77
2023/09/26 06:54:07;;;;;;;43.35;20.98;;;;;;;;;;5092310;28;20076;-75
2023/09/26 06:56:33;;;;;;;29.85;12.10;;;;;;;;;;5093749;28;20043;-78
2023/09/26 06:58:59;;;;;;;42.03;15.98;;;;;;;;;;5093907;28;20028;-74
2023/09/26 07:01:25;;;;;;;24.17;12.68;;;;;;;;;;5094028;28;20533;-74
2023/09/26 07:03:51;;;;;;;31.33;10.10;;;;;;;;;;5093895;28;20490;-76
2023/09/26 07:06:17;;;;;;;20.58;8.63;;;;;;;;;;5095704;28;20035;-78
2023/09/26 07:08:44;;;;;;;37.63;13.45;;;;;;;;;;5097669;28;20016;-77
2023/09/26 07:11:11;;;;;;;27.10;12.68;;;;;;;;;;5096402;28;20111;-77
2023/09/26 07:13:37;;;;;;;27.63;11.25;;;;;;;;;;5095472;28;20555;-76
2023/09/26 07:16:04;;;;;;;21.13;9.05;;;;;;;;;;5094245;28;20123;-75
2023/09/26 07:18:33;;;;;;;32.58;13.57;;;;;;;;;;5095269;28;20035;-76
2023/09/26 07:21:00;;;;;;;35.13;15.93;;;;;;;;;;5094917;28;20024;-76
2023/09/26 07:23:26;;;;;;;26.50;11.20;;;;;;;;;;5095937;28;20497;-73
2023/09/26 07:25:53;;;;;;;22.42;10.77;;;;;;;;;;5095983;28;20052;-75
2023/09/26 07:28:19;;;;;;;23.73;10.55;;;;;;;;;;5094237;28;20386;-73
2023/09/26 07:30:45;;;;;;;23.08;10.73;;;;;;;;;;5082491;28;20024;-72
2023/09/26 07:33:11;;;;;;;21.30;8.88;;;;;;;;;;5073034;28;20128;-73
2023/09/26 07:35:37;;;;;;;16.33;7.28;;;;;;;;;;5072946;28;20031;-72
2023/09/26 07:38:03;;;;;;;20.20;7.75;;;;;;;;;;5073023;28;20107;-72
2023/09/26 07:40:29;;;;;;;13.93;7.05;;;;;;;;;;5073009;28;20406;-74
2023/09/26 07:42:55;;;;;;;17.13;6.93;;;;;;;;;;5072869;28;20017;-74
2023/09/26 07:45:21;;;;;;;16.42;6.88;;;;;;;;;;5072557;28;20139;-73
2023/09/26 07:47:48;;;;;;;16.10;6.32;;;;;;;;;;5072705;28;20108;-74
2023/09/26 07:50:14;;;;;;;18.30;7.07;;;;;;;;;;5088431;28;20391;-75
2023/09/26 07:52:40;;;;;;;19.20;7.65;;;;;;;;;;5073586;28;20021;-74
2023/09/26 07:55:06;;;;;;;12.23;6.07;;;;;;;;;;5088750;28;20063;-74
2023/09/26 07:57:33;;;;;;;13.75;6.00;;;;;;;;;;5072625;28;20043;-74
2023/09/26 07:59:59;;;;;;;25.83;6.68;;;;;;;;;;5072584;28;20016;-74
2023/09/26 08:02:25;;;;;;;28.70;7.28;;;;;;;;;;5072451;28;20495;-74
2023/09/26 08:04:51;;;;;;;34.42;8.43;;;;;;;;;;5073739;28;20091;-74
2023/09/26 08:07:17;;;;;;;29.15;7.05;;;;;;;;;;5072100;28;20491;-75
2023/09/26 08:09:43;;;;;;;22.67;7.50;;;;;;;;;;5071978;28;20036;-77
2023/09/26 08:12:09;;;;;;;18.67;6.18;;;;;;;;;;5091748;28;20095;-74
2023/09/26 08:14:35;;;;;;;18.73;6.50;;;;;;;;;;5095139;28;20162;-74
2023/09/26 08:17:01;;;;;;;18.80;5.88;;;;;;;;;;5092950;28;20131;-77
2023/09/26 08:19:27;;;;;;;12.50;5.60;;;;;;;;;;5093687;28;20020;-75
2023/09/26 08:21:54;;;;;;;19.20;6.82;;;;;;;;;;5092676;28;20024;-76
2023/09/26 08:24:20;;;;;;;16.40;6.00;;;;;;;;;;5095622;28;20080;-78
2023/09/26 08:26:45;;;;;;;19.13;6.22;;;;;;;;;;5094200;28;20105;-78
2023/09/26 08:29:11;;;;;;;17.77;6.28;;;;;;;;;;5094011;28;20024;-78
2023/09/26 08:31:37;;;;;;;30.92;6.43;;;;;;;;;;5098041;28;20032;-77
2023/09/26 08:34:03;;;;;;;23.10;6.10;;;;;;;;;;5094547;28;20103;-77
2023/09/26 08:36:30;;;;;;;31.50;6.03;;;;;;;;;;5095187;28;20483;-78
2023/09/26 08:38:56;;;;;;;15.73;5.60;;;;;;;;;;5098903;28;20028;-75
2023/09/26 08:41:24;;;;;;;20.23;5.70;;;;;;;;;;5092703;28;20054;-76
2023/09/26 08:43:50;;;;;;;19.02;5.70;;;;;;;;;;5091678;28;20054;-75
2023/09/26 08:46:17;;;;;;;20.45;5.60;;;;;;;;;;5092748;28;20028;-77
2023/09/26 08:48:44;;;;;;;18.48;5.47;;;;;;;;;;5092599;28;20027;-78
2023/09/26 08:51:10;;;;;;;25.55;6.28;;;;;;;;;;5093055;28;20032;-75
2023/09/26 08:53:36;;;;;;;10.15;5.03;;;;;;;;;;5093274;28;20020;-75
2023/09/26 08:56:02;;;;;;;24.80;13.35;;;;;;;;;;5092801;28;20039;-76
2023/09/26 08:58:31;;;;;;;27.70;9.80;;;;;;;;;;5091989;28;20629;-74
2023/09/26 09:00:57;;;;;;;24.55;6.10;;;;;;;;;;5091969;28;20059;-75
2023/09/26 09:03:22;;;;;;;17.00;5.63;;;;;;;;;;5091935;28;20028;-77
2023/09/26 09:05:48;;;;;;;26.27;5.80;;;;;;;;;;5092023;28;20491;-80
2023/09/26 09:08:19;;;;;;;43.78;6.13;;;;;;;;;;5096154;28;20024;-79
2023/09/26 09:10:52;;;;;;;18.52;5.43;;;;;;;;;;5097707;28;20031;-79
2023/09/26 09:13:30;;;;;;;20.70;5.07;;;;;;;;;;5096445;28;20024;-81
2023/09/26 09:16:15;;;;;;;24.52;5.95;;;;;;;;;;5092884;28;20028;-77
2023/09/26 09:18:43;;;;;;;23.38;5.53;;;;;;;;;;5092838;28;20032;-77
2023/09/26 09:21:22;;;;;;;15.18;5.07;;;;;;;;;;5094149;28;20036;-76
2023/09/26 09:23:49;;;;;;;15.30;4.88;;;;;;;;;;5092055;28;20020;-74
2023/09/26 09:26:15;;;;;;;17.58;5.20;;;;;;;;;;5091701;28;20031;-77
2023/09/26 09:28:42;;;;;;;19.13;5.18;;;;;;;;;;5092926;28;20069;-76
2023/09/26 09:31:07;;;;;;;10.25;4.32;;;;;;;;;;5092140;28;20475;-73
2023/09/26 09:33:33;;;;;;;11.30;4.50;;;;;;;;;;5092105;28;20028;-75
2023/09/26 09:36:00;;;;;;;18.08;4.88;;;;;;;;;;5091789;28;20493;-74
2023/09/26 09:38:26;;;;;;;13.15;4.15;;;;;;;;;;5095823;28;20544;-74
2023/09/26 09:40:52;;;;;;;14.23;4.53;;;;;;;;;;5096447;28;20506;-75
2023/09/26 09:43:19;;;;;;;24.83;4.70;;;;;;;;;;5096512;28;20157;-74
2023/09/26 09:45:47;;;;;;;12.15;4.65;;;;;;;;;;5096282;28;20062;-73
2023/09/26 09:48:14;;;;;;;19.02;5.63;;;;;;;;;;5095627;28;20031;-74
2023/09/26 09:50:41;;;;;;;29.95;5.95;;;;;;;;;;5095574;28;20020;-74
2023/09/26 09:53:08;;;;;;;18.13;5.18;;;;;;;;;;5095325;28;20394;-75
2023/09/26 09:55:39;;;;;;;16.83;4.60;;;;;;;;;;5095164;28;20024;-74
2023/09/26 09:58:08;;;;;;;15.30;4.40;;;;;;;;;;5095437;28;20028;-74
2023/09/26 10:00:36;;;;;;;14.60;4.05;;;;;;;;;;5095446;28;20077;-74
2023/09/26 10:03:04;;;;;;;16.95;3.83;;;;;;;;;;5095253;28;20073;-75
2023/09/26 10:05:31;;;;;;;27.42;5.10;;;;;;;;;;5095269;28;20028;-75
2023/09/26 10:07:58;;;;;;;13.15;4.50;;;;;;;;;;5095917;28;20046;-74
2023/09/26 10:10:24;;;;;;;8.18;3.65;;;;;;;;;;5095544;28;20035;-74
2023/09/26 10:12:51;;;;;;;19.58;4.55;;;;;;;;;;5095430;28;20103;-74
2023/09/26 10:15:17;;;;;;;12.95;4.15;;;;;;;;;;5095998;28;20024;-75
2023/09/26 10:17:45;;;;;;;13.05;4.18;;;;;;;;;;5096126;28;20071;-73
2023/09/26 10:20:12;;;;;;;34.28;5.30;;;;;;;;;;5096721;28;20139;-73
2023/09/26 10:22:41;;;;;;;16.63;4.35;;;;;;;;;;5098300;28;20024;-73
2023/09/26 10:25:07;;;;;;;11.68;3.67;;;;;;;;;;5095066;28;20028;-74
2023/09/26 10:27:33;;;;;;;11.57;3.90;;;;;;;;;;5096669;28;20510;-75
2023/09/26 10:30:02;;;;;;;10.35;4.20;;;;;;;;;;5096450;28;20062;-74
2023/09/26 10:32:32;;;;;;;10.63;3.95;;;;;;;;;;5096815;28;20042;-74
2023/09/26 10:35:00;;;;;;;15.68;4.03;;;;;;;;;;5099961;28;20082;-73
2023/09/26 10:37:27;;;;;;;12.15;3.78;;;;;;;;;;5100351;28;20031;-77
2023/09/26 10:39:53;;;;;;;11.45;3.40;;;;;;;;;;5098050;28;20012;-75
2023/09/26 10:42:20;;;;;;;17.75;4.15;;;;;;;;;;5096238;28;20016;-76
2023/09/26 10:44:49;;;;;;;13.65;3.53;;;;;;;;;;5091748;28;20059;-76
2023/09/26 10:47:15;;;;;;;11.73;3.95;;;;;;;;;;5092126;28;20024;-75
2023/09/26 10:49:43;;;;;;;21.20;3.38;;;;;;;;;;5092319;28;20490;-74
2023/09/26 10:52:09;;;;;;;17.02;3.55;;;;;;;;;;5091909;28;20051;-76
2023/09/26 10:54:37;;;;;;;12.45;3.30;;;;;;;;;;5091899;28;20032;-74
2023/09/26 10:57:03;;;;;;;13.40;2.80;;;;;;;;;;5091269;28;20389;-75
2023/09/26 10:59:29;;;;;;;21.48;4.05;;;;;;;;;;5091747;28;20027;-74
2023/09/26 11:01:59;;;;;;;12.25;3.67;;;;;;;;;;5091388;28;20062;-74
2023/09/26 11:04:28;;;;;;;12.90;3.25;;;;;;;;;;5091457;28;20024;-73
2023/09/26 11:06:54;;;;;;;13.45;3.38;;;;;;;;;;5091752;28;20024;-73
2023/09/26 11:09:20;;;;;;;11.10;3.40;;;;;;;;;;5089941;28;20483;-75
2023/09/26 11:11:46;;;;;;;8.93;3.10;;;;;;;;;;5091601;28;20024;-74
2023/09/26 11:14:12;;;;;;;14.13;3.40;;;;;;;;;;5091644;28;20400;-77
2023/09/26 11:16:41;;;;;;;17.40;3.72;;;;;;;;;;5091240;28;20114;-72
2023/09/26 11:19:09;;;;;;;9.23;2.78;;;;;;;;;;5091481;28;20061;-74
2023/09/26 11:21:35;;;;;;;7.60;3.42;;;;;;;;;;5091492;28;20207;-74
2023/09/26 11:24:17;;;;;;;15.95;3.20;;;;;;;;;;5091131;28;20039;-75
2023/09/26 11:26:44;;;;;;;11.52;2.92;;;;;;;;;;5090934;28;20020;-74
2023/09/26 11:29:10;;;;;;;15.38;3.08;;;;;;;;;;5091471;28;20031;-74
2023/09/26 11:31:36;;;;;;;13.63;3.42;;;;;;;;;;5091546;28;20055;-75
2023/09/26 11:34:03;;;;;;;8.57;3.67;;;;;;;;;;5090648;28;20035;-74
2023/09/26 11:36:29;;;;;;;7.43;3.00;;;;;;;;;;5090554;28;20390;-76
2023/09/26 11:38:55;;;;;;;9.93;3.38;;;;;;;;;;5091479;28;20222;-76
2023/09/26 11:41:21;;;;;;;11.50;3.25;;;;;;;;;;5095073;28;20520;-76
2023/09/26 11:43:47;;;;;;;8.20;3.13;;;;;;;;;;5094262;28;20032;-75
2023/09/26 11:46:14;;;;;;;13.13;3.17;;;;;;;;;;5094906;28;20024;-75
2023/09/26 11:48:41;;;;;;;14.35;2.95;;;;;;;;;;5093731;28;20028;-73
2023/09/26 11:51:07;;;;;;;6.38;2.67;;;;;;;;;;5093798;28;20020;-74
2023/09/26 11:53:33;;;;;;;9.25;3.03;;;;;;;;;;5092856;28;20043;-73
2023/09/26 11:55:59;;;;;;;11.98;3.08;;;;;;;;;;5092797;28;20439;-74
2023/09/26 11:58:25;;;;;;;12.38;2.65;;;;;;;;;;5093387;28;20107;-73
2023/09/26 12:00:52;;;;;;;7.65;2.88;;;;;;;;;;5092650;28;20065;-73
2023/09/26 12:03:18;;;;;;;18.27;2.80;;;;;;;;;;5092649;28;20077;-76
2023/09/26 12:05:44;;;;;;;13.10;2.70;;;;;;;;;;5092765;28;20106;-74
2023/09/26 12:08:10;;;;;;;25.10;3.28;;;;;;;;;;5092576;28;20024;-75
2023/09/26 12:10:38;;;;;;;9.10;2.67;;;;;;;;;;5093494;28;20032;-78
2023/09/26 12:13:06;;;;;;;10.93;2.60;;;;;;;;;;5091245;28;20133;-78
2023/09/26 12:15:33;;;;;;;10.10;2.58;;;;;;;;;;5093979;28;20027;-78
2023/09/26 12:17:59;;;;;;;9.48;2.85;;;;;;;;;;5093885;28;20482;-79
2023/09/26 12:20:25;;;;;;;10.52;2.78;;;;;;;;;;5092460;28;20091;-77
2023/09/26 12:22:52;;;;;;;7.50;2.63;;;;;;;;;;5093972;28;20054;-74
2023/09/26 12:25:19;;;;;;;9.60;2.70;;;;;;;;;;5092591;28;20030;-74
2023/09/26 12:27:45;;;;;;;13.50;2.42;;;;;;;;;;5093035;28;20498;-75
2023/09/26 12:30:11;;;;;;;21.27;2.60;;;;;;;;;;5092440;28;20034;-74
2023/09/26 12:32:37;;;;;;;8.20;2.58;;;;;;;;;;5092349;28;20024;-76
2023/09/26 12:35:05;;;;;;;14.48;3.45;;;;;;;;;;5092080;28;20030;-74
2023/09/26 12:37:31;;;;;;;10.27;2.95;;;;;;;;;;5091879;28;20024;-75
2023/09/26 12:39:57;;;;;;;22.45;3.78;;;;;;;;;;5092192;28;20387;-76
2023/09/26 12:42:23;;;;;;;12.00;2.63;;;;;;;;;;5092179;28;20045;-74
2023/09/26 12:44:49;;;;;;;9.20;2.58;;;;;;;;;;5092011;28;20103;-73
2023/09/26 12:47:15;;;;;;;15.38;2.75;;;;;;;;;;5091846;28;20024;-74
2023/09/26 12:49:41;;;;;;;10.13;2.50;;;;;;;;;;5092121;28;20024;-75
2023/09/26 12:52:07;;;;;;;17.33;2.63;;;;;;;;;;5091256;28;20034;-74
2023/09/26 12:54:33;;;;;;;7.85;2.65;;;;;;;;;;5089732;28;20030;-73
2023/09/26 12:57:01;;;;;;;7.47;3.00;;;;;;;;;;5090298;28;20027;-74
2023/09/26 12:59:28;;;;;;;7.97;2.33;;;;;;;;;;5087468;28;20051;-74
2023/09/26 13:01:58;;;;;;;5.28;1.85;;;;;;;;;;5091478;28;20099;-74
2023/09/26 13:04:24;;;;;;;9.98;3.65;;;;;;;;;;5091897;28;20048;-74
2023/09/26 13:06:50;;;;;;;11.07;6.43;;;;;;;;;;5088831;28;20115;-73
2023/09/26 13:09:16;;;;;;;8.68;2.30;;;;;;;;;;5091686;28;20498;-74
2023/09/26 13:11:42;;;;;;;9.43;2.42;;;;;;;;;;5091343;28;20058;-73
2023/09/26 13:14:08;;;;;;;10.00;2.60;;;;;;;;;;5089411;28;20032;-74
2023/09/26 13:16:34;;;;;;;5.30;2.15;;;;;;;;;;5087035;28;20363;-75
2023/09/26 13:19:00;;;;;;;7.15;2.15;;;;;;;;;;5091107;28;20482;-77
2023/09/26 13:21:26;;;;;;;5.72;2.30;;;;;;;;;;5091311;28;20031;-74
2023/09/26 13:23:54;;;;;;;8.63;2.47;;;;;;;;;;5088408;28;20039;-74
2023/09/26 13:26:20;;;;;;;16.10;3.00;;;;;;;;;;5090532;28;20479;-73
2023/09/26 13:28:46;;;;;;;12.15;2.70;;;;;;;;;;5091490;28;20059;-75
2023/09/26 13:31:12;;;;;;;15.32;2.65;;;;;;;;;;5090128;28;20031;-74
2023/09/26 13:33:39;;;;;;;6.05;2.83;;;;;;;;;;5089244;28;20032;-74
2023/09/26 13:36:05;;;;;;;7.80;2.88;;;;;;;;;;5091218;28;20502;-75
2023/09/26 13:38:31;;;;;;;8.13;2.63;;;;;;;;;;5097469;28;20024;-75
2023/09/26 13:40:57;;;;;;;7.10;2.30;;;;;;;;;;5090950;28;20026;-74
2023/09/26 13:43:23;;;;;;;8.90;2.67;;;;;;;;;;5084361;28;20020;-74
2023/09/26 13:45:49;;;;;;;6.97;2.25;;;;;;;;;;5091263;28;20020;-74
2023/09/26 13:48:15;;;;;;;9.48;3.13;;;;;;;;;;5091265;28;20042;-75
2023/09/26 13:50:41;;;;;;;9.77;5.03;;;;;;;;;;5092116;28;20032;-73
2023/09/26 13:53:07;;;;;;;7.72;2.92;;;;;;;;;;5089825;28;20085;-74
2023/09/26 13:55:33;;;;;;;4.93;2.97;;;;;;;;;;5091127;28;20115;-73
2023/09/26 13:57:59;;;;;;;8.65;2.95;;;;;;;;;;5092717;28;20024;-74
2023/09/26 14:00:27;;;;;;;24.75;3.28;;;;;;;;;;5089760;28;20017;-76
2023/09/26 14:02:53;;;;;;;11.52;4.53;;;;;;;;;;5088135;28;20059;-74
2023/09/26 14:05:22;;;;;;;8.48;3.53;;;;;;;;;;5091612;28;20096;-74
2023/09/26 14:07:48;;;;;;;5.53;2.65;;;;;;;;;;5092732;28;20020;-74
2023/09/26 14:10:14;;;;;;;7.53;2.47;;;;;;;;;;5096818;28;20181;-76
2023/09/26 14:12:40;;;;;;;10.25;2.20;;;;;;;;;;5094513;28;20099;-75
2023/09/26 14:15:07;;;;;;;9.32;2.88;;;;;;;;;;5092014;28;20505;-74
2023/09/26 14:17:33;;;;;;;6.40;2.53;;;;;;;;;;5091133;28;20028;-74
2023/09/26 14:19:59;;;;;;;13.40;3.80;;;;;;;;;;5091924;28;20032;-73
2023/09/26 14:22:25;;;;;;;6.43;2.67;;;;;;;;;;5090736;28;20020;-75
2023/09/26 14:24:51;;;;;;;9.38;2.90;;;;;;;;;;5094525;28;20063;-76
2023/09/26 14:27:18;;;;;;;7.82;2.28;;;;;;;;;;5095373;28;20103;-74